Time;durP1;ratioP1;P1;durP2;ratioP2;P2;SDS_P1;SDS_P2;PMS_P1;PMS_P2;Temp;Humidity;BMP_temperature;BMP_pressure;BME280_temperature;BME280_humidity;BME280_pressure;Samples;Min_cycle;Max_cycle;Signal;HPM_P1;HPM_P2
2024/01/16 00:01:59;;;;;;;24.63;6.43;;;1.90;99.90;;;;;;5036880;28;20526;-79
2024/01/16 00:04:26;;;;;;;27.73;5.90;;;1.90;99.90;;;;;;5035783;28;20254;-79
2024/01/16 00:06:52;;;;;;;27.73;6.72;;;1.90;99.90;;;;;;5018015;28;20256;-80
2024/01/16 00:09:18;;;;;;;23.50;6.77;;;1.90;99.90;;;;;;5017910;28;20170;-79
2024/01/16 00:11:44;;;;;;;23.27;7.07;;;1.90;99.90;;;;;;5035386;28;20444;-80
2024/01/16 00:14:09;;;;;;;20.83;6.30;;;1.90;99.90;;;;;;5035873;28;20162;-80
2024/01/16 00:16:48;;;;;;;26.43;6.77;;;1.90;99.90;;;;;;5035902;28;20955;-79
2024/01/16 00:19:14;;;;;;;26.92;7.10;;;1.80;99.90;;;;;;5034419;28;20172;-79
2024/01/16 00:21:46;;;;;;;22.33;6.53;;;1.90;99.90;;;;;;5035225;28;20745;-79
2024/01/16 00:24:16;;;;;;;29.88;6.95;;;1.90;99.90;;;;;;5035172;28;20665;-79
2024/01/16 00:26:41;;;;;;;30.77;6.13;;;1.80;99.90;;;;;;5035426;28;20670;-79
2024/01/16 00:29:08;;;;;;;27.53;8.00;;;1.80;99.90;;;;;;5017545;28;20176;-79
2024/01/16 00:31:34;;;;;;;24.77;6.55;;;1.70;99.90;;;;;;5035136;28;20397;-79
2024/01/16 00:34:00;;;;;;;30.90;6.10;;;1.80;99.90;;;;;;5034954;28;20643;-79
2024/01/16 00:36:26;;;;;;;22.90;5.70;;;1.80;99.90;;;;;;5034894;28;20424;-79
2024/01/16 00:38:52;;;;;;;23.67;5.97;;;1.80;99.90;;;;;;5035573;28;20527;-81
2024/01/16 00:41:17;;;;;;;23.90;5.50;;;1.80;99.90;;;;;;5035381;28;20551;-80
2024/01/16 00:43:44;;;;;;;23.03;5.50;;;1.80;99.90;;;;;;5035733;28;20166;-79
2024/01/16 00:46:09;;;;;;;22.08;6.40;;;1.70;99.90;;;;;;5035343;28;20186;-80
2024/01/16 00:48:35;;;;;;;25.97;6.30;;;1.80;99.90;;;;;;5035311;28;20177;-79
2024/01/16 00:51:01;;;;;;;22.30;6.20;;;1.70;99.90;;;;;;5035366;28;20340;-79
2024/01/16 00:53:27;;;;;;;27.53;5.67;;;1.70;99.90;;;;;;5035553;28;20220;-80
2024/01/16 00:55:54;;;;;;;21.40;6.07;;;1.70;99.90;;;;;;5035182;28;20543;-81
2024/01/16 00:58:23;;;;;;;20.63;5.95;;;1.70;99.90;;;;;;5017627;28;20778;-79
2024/01/16 01:00:49;;;;;;;25.15;5.18;;;1.70;99.90;;;;;;5035095;28;20555;-79
2024/01/16 01:03:15;;;;;;;30.10;6.80;;;1.70;99.90;;;;;;5034931;28;20166;-79
2024/01/16 01:05:41;;;;;;;26.53;5.67;;;1.60;99.90;;;;;;5034905;28;20921;-79
2024/01/16 01:08:07;;;;;;;22.20;5.10;;;1.70;99.90;;;;;;5034617;28;20579;-81
2024/01/16 01:10:33;;;;;;;22.27;6.40;;;1.70;99.90;;;;;;5017165;28;20417;-79
2024/01/16 01:12:58;;;;;;;22.63;5.63;;;1.70;99.90;;;;;;5035436;28;20261;-80
2024/01/16 01:15:24;;;;;;;20.27;5.07;;;1.60;99.90;;;;;;5035074;28;20489;-79
2024/01/16 01:17:54;;;;;;;23.57;5.53;;;1.60;99.90;;;;;;5035240;28;20554;-81
2024/01/16 01:20:20;;;;;;;23.10;5.47;;;1.60;99.90;;;;;;5035031;28;20162;-79
2024/01/16 01:22:46;;;;;;;29.23;5.57;;;1.70;99.90;;;;;;5035323;28;20169;-80
2024/01/16 01:25:12;;;;;;;24.92;4.88;;;1.60;99.90;;;;;;5034735;28;20408;-79
2024/01/16 01:27:39;;;;;;;20.90;5.18;;;1.70;99.90;;;;;;5034706;28;20247;-79
2024/01/16 01:30:11;;;;;;;20.20;4.75;;;1.70;99.90;;;;;;5034461;28;20513;-80
2024/01/16 01:32:37;;;;;;;27.17;5.40;;;1.70;99.90;;;;;;5034391;28;20178;-82
2024/01/16 01:35:04;;;;;;;23.52;5.22;;;1.70;99.90;;;;;;5034640;28;20162;-80
2024/01/16 01:37:30;;;;;;;20.10;4.90;;;1.70;99.90;;;;;;5016855;28;20194;-81
2024/01/16 01:39:55;;;;;;;22.63;4.77;;;1.70;99.90;;;;;;5034631;28;20162;-80
2024/01/16 01:42:21;;;;;;;26.53;5.00;;;1.70;99.90;;;;;;5016930;28;20440;-79
2024/01/16 01:44:47;;;;;;;20.83;4.77;;;1.60;99.90;;;;;;5034521;28;20166;-80
2024/01/16 01:47:13;;;;;;;23.05;5.30;;;1.60;99.90;;;;;;5034320;28;20181;-79
2024/01/16 01:49:40;;;;;;;28.73;7.10;;;1.60;99.90;;;;;;5034193;28;20197;-80
2024/01/16 01:52:07;;;;;;;23.50;5.63;;;1.60;99.90;;;;;;5034208;28;20201;-79
2024/01/16 01:54:35;;;;;;;23.13;5.55;;;1.60;99.90;;;;;;5034210;28;20208;-81
2024/01/16 01:57:02;;;;;;;21.13;5.53;;;1.60;99.90;;;;;;5035092;28;20181;-80
2024/01/16 01:59:29;;;;;;;29.42;5.57;;;1.60;99.90;;;;;;5034673;28;20193;-81
2024/01/16 02:01:55;;;;;;;23.58;6.05;;;1.60;99.90;;;;;;5034778;28;20647;-80
2024/01/16 02:04:23;;;;;;;23.70;5.05;;;1.60;99.90;;;;;;5034579;28;20193;-81
2024/01/16 02:06:48;;;;;;;21.52;5.45;;;1.50;99.90;;;;;;5034305;28;20190;-80
2024/01/16 02:09:14;;;;;;;22.23;6.10;;;1.50;99.90;;;;;;5034114;28;20581;-80
2024/01/16 02:11:43;;;;;;;20.60;5.10;;;1.50;99.90;;;;;;5034324;28;20488;-80
2024/01/16 02:14:09;;;;;;;20.90;5.03;;;1.50;99.90;;;;;;5016677;28;20169;-80
2024/01/16 02:16:44;;;;;;;19.90;5.00;;;1.50;99.90;;;;;;5034566;28;20261;-79
2024/01/16 02:19:10;;;;;;;21.75;5.82;;;1.40;99.90;;;;;;5035226;28;20480;-80
2024/01/16 02:21:48;;;;;;;21.47;5.70;;;1.50;99.90;;;;;;5034328;28;20245;-79
2024/01/16 02:24:15;;;;;;;25.50;5.03;;;1.50;99.90;;;;;;5016946;28;20947;-81
2024/01/16 02:26:41;;;;;;;25.65;6.22;;;1.50;99.90;;;;;;5034450;28;20272;-81
2024/01/16 02:29:06;;;;;;;21.70;5.80;;;1.50;99.90;;;;;;5034908;28;20166;-80
2024/01/16 02:31:33;;;;;;;23.10;5.10;;;1.50;99.90;;;;;;5033984;28;20169;-79
2024/01/16 02:33:59;;;;;;;23.65;6.03;;;1.50;99.90;;;;;;5034699;28;20271;-80
2024/01/16 02:36:29;;;;;;;22.63;5.53;;;1.50;99.90;;;;;;5016616;28;20228;-81
2024/01/16 02:38:54;;;;;;;23.02;5.45;;;1.50;99.90;;;;;;5034029;28;20163;-80
2024/01/16 02:41:20;;;;;;;25.70;6.07;;;1.50;99.90;;;;;;5034452;28;20174;-81
2024/01/16 02:43:46;;;;;;;29.60;5.80;;;1.50;99.90;;;;;;5037992;28;20169;-80
2024/01/16 02:46:13;;;;;;;25.30;6.57;;;1.50;99.90;;;;;;5037999;28;20193;-80
2024/01/16 02:48:39;;;;;;;27.20;7.30;;;1.50;99.90;;;;;;5038476;28;20173;-81
2024/01/16 02:51:05;;;;;;;24.63;5.25;;;1.50;99.90;;;;;;5038026;28;20166;-79
2024/01/16 02:53:31;;;;;;;25.20;6.18;;;1.60;99.90;;;;;;5037913;28;20620;-81
2024/01/16 02:56:00;;;;;;;27.23;6.82;;;1.50;99.90;;;;;;5037995;28;20164;-80
2024/01/16 02:58:26;;;;;;;24.10;5.53;;;1.50;99.90;;;;;;5020054;28;20166;-80
2024/01/16 03:00:52;;;;;;;32.10;7.53;;;1.50;99.90;;;;;;5037694;28;20512;-80
2024/01/16 03:03:18;;;;;;;23.60;7.00;;;1.50;99.90;;;;;;5037694;28;20253;-80
2024/01/16 03:05:44;;;;;;;23.05;5.80;;;1.50;99.90;;;;;;5037655;28;20401;-79
2024/01/16 03:08:10;;;;;;;21.93;5.50;;;1.50;99.90;;;;;;5019770;28;20166;-81
2024/01/16 03:10:36;;;;;;;27.70;5.90;;;1.50;99.90;;;;;;5039105;28;20499;-81
2024/01/16 03:13:02;;;;;;;22.47;6.40;;;1.50;99.90;;;;;;5020784;28;20284;-80
2024/01/16 03:15:30;;;;;;;23.80;6.45;;;1.50;99.90;;;;;;5020239;28;20172;-80
2024/01/16 03:18:00;;;;;;;20.85;5.35;;;1.50;99.90;;;;;;5037580;28;20192;-81
2024/01/16 03:20:26;;;;;;;22.98;6.03;;;1.50;99.90;;;;;;5038168;28;20568;-80
2024/01/16 03:22:51;;;;;;;26.08;6.22;;;1.50;99.90;;;;;;5037102;28;20197;-80
2024/01/16 03:25:17;;;;;;;27.47;7.97;;;1.50;99.90;;;;;;5039142;28;20173;-82
2024/01/16 03:27:44;;;;;;;24.48;6.55;;;1.50;99.90;;;;;;5038612;28;20760;-80
2024/01/16 03:30:10;;;;;;;22.13;6.25;;;1.50;99.90;;;;;;5019017;28;20638;-79
2024/01/16 03:32:37;;;;;;;29.42;6.30;;;1.50;99.90;;;;;;5019040;28;20190;-79
2024/01/16 03:35:03;;;;;;;24.73;6.13;;;1.60;99.90;;;;;;5019554;28;20218;-80
2024/01/16 03:37:29;;;;;;;20.38;5.53;;;1.50;99.90;;;;;;5036864;28;20201;-81
2024/01/16 03:39:54;;;;;;;27.60;6.33;;;1.50;99.90;;;;;;5019120;28;20635;-80
2024/01/16 03:42:20;;;;;;;24.07;7.30;;;1.50;99.90;;;;;;5036734;28;20241;-80
2024/01/16 03:44:46;;;;;;;27.95;6.32;;;1.50;99.90;;;;;;5036468;28;20216;-80
2024/01/16 03:47:12;;;;;;;21.17;6.00;;;1.50;99.90;;;;;;5036287;28;20185;-81
2024/01/16 03:49:38;;;;;;;23.63;5.83;;;1.50;99.90;;;;;;5036886;28;20488;-80
2024/01/16 03:52:04;;;;;;;21.30;5.60;;;1.50;99.90;;;;;;5038168;28;20858;-81
2024/01/16 03:54:30;;;;;;;23.05;6.10;;;1.50;99.90;;;;;;5038417;28;20918;-81
2024/01/16 03:56:56;;;;;;;26.90;7.10;;;1.50;99.90;;;;;;5021004;28;20201;-81
2024/01/16 03:59:22;;;;;;;29.05;7.68;;;1.50;99.90;;;;;;5037095;28;20174;-79
2024/01/16 04:01:48;;;;;;;22.10;6.53;;;1.50;99.90;;;;;;5036795;28;20189;-81
2024/01/16 04:04:15;;;;;;;26.13;5.70;;;1.50;99.90;;;;;;5036289;28;20554;-80
2024/01/16 04:06:41;;;;;;;24.30;6.97;;;1.40;99.90;;;;;;5036030;28;20194;-79
2024/01/16 04:09:08;;;;;;;20.87;6.67;;;1.40;99.90;;;;;;5036468;28;20527;-78
2024/01/16 04:11:34;;;;;;;23.98;6.68;;;1.40;99.90;;;;;;5036692;28;20224;-80
2024/01/16 04:14:00;;;;;;;22.87;6.20;;;1.40;99.90;;;;;;5038437;28;20158;-82
2024/01/16 04:16:25;;;;;;;26.85;6.10;;;1.40;99.90;;;;;;5036321;28;20423;-80
2024/01/16 04:18:51;;;;;;;23.10;5.63;;;1.40;99.90;;;;;;5036560;28;20539;-81
2024/01/16 04:21:17;;;;;;;24.10;6.17;;;1.40;99.90;;;;;;5018831;28;20193;-80
2024/01/16 04:23:43;;;;;;;34.03;6.30;;;1.30;99.90;;;;;;5036810;28;20170;-81
2024/01/16 04:26:08;;;;;;;22.70;5.37;;;1.40;99.90;;;;;;5018046;28;20209;-80
2024/01/16 04:28:34;;;;;;;22.20;6.20;;;1.40;99.90;;;;;;5035582;28;20405;-80
2024/01/16 04:31:01;;;;;;;30.20;5.73;;;1.40;99.90;;;;;;5035330;28;20235;-79
2024/01/16 04:33:27;;;;;;;25.45;6.43;;;1.40;99.90;;;;;;5035540;28;20196;-81
2024/01/16 04:35:52;;;;;;;24.40;5.87;;;1.40;99.90;;;;;;5035495;28;20584;-79
2024/01/16 04:38:18;;;;;;;26.37;5.17;;;1.40;99.90;;;;;;5036009;28;20483;-81
2024/01/16 04:40:44;;;;;;;21.70;5.30;;;1.40;99.90;;;;;;5018055;28;20166;-80
2024/01/16 04:43:09;;;;;;;25.53;6.03;;;1.40;99.90;;;;;;5035060;28;20170;-79
2024/01/16 04:45:36;;;;;;;26.43;6.50;;;1.40;99.90;;;;;;5034905;28;20247;-79
2024/01/16 04:48:01;;;;;;;23.85;5.80;;;1.40;99.90;;;;;;5035261;28;20749;-79
2024/01/16 04:50:31;;;;;;;31.27;6.00;;;1.40;99.90;;;;;;5035014;28;20173;-80
2024/01/16 04:52:59;;;;;;;32.13;5.97;;;1.40;99.90;;;;;;5017217;28;20201;-80
2024/01/16 04:55:28;;;;;;;23.35;5.63;;;1.40;99.90;;;;;;5034948;28;20639;-81
2024/01/16 04:57:54;;;;;;;22.25;6.65;;;1.40;99.90;;;;;;5034944;28;20260;-79
2024/01/16 05:00:20;;;;;;;21.88;5.72;;;1.40;99.90;;;;;;5034940;28;20542;-80
2024/01/16 05:02:46;;;;;;;27.17;5.77;;;1.50;99.90;;;;;;5034610;28;20162;-79
2024/01/16 05:05:12;;;;;;;26.17;5.88;;;1.40;99.90;;;;;;5034357;28;20412;-79
2024/01/16 05:07:38;;;;;;;27.35;6.55;;;1.40;99.90;;;;;;5034564;28;20268;-79
2024/01/16 05:10:06;;;;;;;22.00;6.30;;;1.40;99.90;;;;;;5016585;28;20200;-79
2024/01/16 05:12:31;;;;;;;23.55;6.30;;;1.40;99.90;;;;;;5017056;28;20957;-80
2024/01/16 05:14:57;;;;;;;21.87;5.60;;;1.40;99.90;;;;;;5016856;28;20216;-80
2024/01/16 05:17:23;;;;;;;26.58;5.65;;;1.30;99.90;;;;;;5017276;28;20276;-78
2024/01/16 05:19:49;;;;;;;24.20;5.83;;;1.30;99.90;;;;;;5034792;28;20201;-79
2024/01/16 05:22:15;;;;;;;22.67;5.67;;;1.40;99.90;;;;;;5034027;28;20176;-79
2024/01/16 05:24:41;;;;;;;23.42;6.30;;;1.40;99.90;;;;;;5034187;28;20166;-79
2024/01/16 05:27:06;;;;;;;25.90;5.93;;;1.30;99.90;;;;;;5034185;28;20205;-79
2024/01/16 05:29:32;;;;;;;26.37;6.03;;;1.40;99.90;;;;;;5034298;28;20253;-79
2024/01/16 05:31:58;;;;;;;22.70;6.13;;;1.40;99.90;;;;;;5034899;28;20227;-81
2024/01/16 05:34:23;;;;;;;33.13;6.67;;;1.40;99.90;;;;;;5034067;28;20628;-79
2024/01/16 05:36:49;;;;;;;29.90;5.20;;;1.40;99.90;;;;;;5034306;28;20242;-80
2024/01/16 05:39:17;;;;;;;25.20;6.20;;;1.40;99.90;;;;;;5034421;28;20401;-80
2024/01/16 05:41:42;;;;;;;22.08;5.15;;;1.40;99.90;;;;;;5017275;28;20166;-80
2024/01/16 05:44:08;;;;;;;22.27;4.80;;;1.40;99.90;;;;;;5035570;28;20158;-81
2024/01/16 05:46:34;;;;;;;27.30;5.50;;;1.40;99.90;;;;;;5035775;28;20337;-81
2024/01/16 05:48:59;;;;;;;28.50;6.40;;;1.40;99.90;;;;;;5036754;28;20492;-82
2024/01/16 05:51:28;;;;;;;25.40;5.63;;;1.40;99.90;;;;;;5035175;28;20162;-79
2024/01/16 05:53:54;;;;;;;22.45;4.93;;;1.40;99.90;;;;;;5034914;28;20456;-81
2024/01/16 05:56:19;;;;;;;22.20;5.65;;;1.40;99.90;;;;;;5035047;28;20221;-80
2024/01/16 05:58:45;;;;;;;23.10;5.93;;;1.40;99.90;;;;;;5033883;28;20178;-80
2024/01/16 06:01:13;;;;;;;25.83;4.80;;;1.40;99.90;;;;;;5034092;28;20585;-79
2024/01/16 06:03:39;;;;;;;23.23;5.57;;;1.40;99.90;;;;;;5034332;28;20166;-79
2024/01/16 06:06:05;;;;;;;26.23;4.57;;;1.40;99.90;;;;;;5016224;28;20250;-80
2024/01/16 06:08:31;;;;;;;21.10;4.88;;;1.40;99.90;;;;;;5034507;28;20203;-80
2024/01/16 06:10:57;;;;;;;25.70;5.30;;;1.40;99.90;;;;;;5016721;28;20165;-80
2024/01/16 06:13:22;;;;;;;25.60;4.93;;;1.40;99.90;;;;;;5034949;28;20185;-80
2024/01/16 06:15:48;;;;;;;24.63;5.60;;;1.40;99.90;;;;;;5034135;28;20661;-79
2024/01/16 06:18:14;;;;;;;26.63;5.20;;;1.40;99.90;;;;;;5036590;28;20178;-80
2024/01/16 06:20:40;;;;;;;27.70;4.60;;;1.40;99.90;;;;;;5038214;28;20146;-80
2024/01/16 06:23:05;;;;;;;25.30;6.30;;;1.40;99.90;;;;;;5038642;28;20385;-79
2024/01/16 06:25:31;;;;;;;20.07;5.20;;;1.40;99.90;;;;;;5038064;28;20170;-80
2024/01/16 06:27:56;;;;;;;21.40;5.07;;;1.40;99.90;;;;;;5037942;28;20190;-82
2024/01/16 06:30:23;;;;;;;26.43;5.57;;;1.40;99.90;;;;;;5039770;28;20207;-80
2024/01/16 06:32:49;;;;;;;22.05;4.78;;;1.40;99.90;;;;;;5039927;28;20655;-80
2024/01/16 06:35:16;;;;;;;20.75;4.25;;;1.40;99.90;;;;;;5040270;28;20169;-80
2024/01/16 06:37:42;;;;;;;21.27;4.13;;;1.30;99.90;;;;;;5039920;28;20244;-80
2024/01/16 06:40:09;;;;;;;25.45;5.47;;;1.40;99.90;;;;;;5040451;28;20166;-80
2024/01/16 06:42:35;;;;;;;22.55;5.18;;;1.40;99.90;;;;;;5039702;28;20211;-82
2024/01/16 06:45:02;;;;;;;29.05;4.70;;;1.40;99.90;;;;;;5039683;28;20170;-80
2024/01/16 06:47:27;;;;;;;28.27;4.32;;;1.40;99.90;;;;;;5038858;28;20566;-80
2024/01/16 06:49:53;;;;;;;20.77;4.60;;;1.40;99.90;;;;;;5039199;28;20166;-81
2024/01/16 06:52:19;;;;;;;20.67;4.23;;;1.40;99.90;;;;;;5037797;28;20190;-81
2024/01/16 06:54:45;;;;;;;20.75;4.35;;;1.40;99.90;;;;;;5020066;28;20184;-81
2024/01/16 06:57:11;;;;;;;19.90;4.77;;;1.50;99.90;;;;;;5039274;28;20272;-80
2024/01/16 06:59:36;;;;;;;23.60;4.50;;;1.40;99.90;;;;;;5039670;28;20162;-80
2024/01/16 07:02:03;;;;;;;21.33;3.50;;;1.50;99.90;;;;;;5038645;28;20170;-81
2024/01/16 07:04:29;;;;;;;26.65;3.85;;;1.40;99.90;;;;;;5020325;28;20174;-81
2024/01/16 07:06:54;;;;;;;25.00;4.10;;;1.40;99.90;;;;;;5020083;28;20247;-80
2024/01/16 07:09:20;;;;;;;20.77;3.40;;;1.40;99.90;;;;;;5040012;28;20447;-81
2024/01/16 07:11:47;;;;;;;18.83;3.63;;;1.40;99.90;;;;;;5039377;28;20577;-80
2024/01/16 07:14:13;;;;;;;22.80;3.72;;;1.40;99.90;;;;;;5039296;28;20681;-81
2024/01/16 07:16:38;;;;;;;19.77;3.70;;;1.40;99.90;;;;;;5021859;28;20189;-81
2024/01/16 07:19:04;;;;;;;18.73;3.57;;;1.40;99.90;;;;;;5037867;28;20400;-81
2024/01/16 07:21:30;;;;;;;21.77;4.20;;;1.50;99.90;;;;;;5038490;28;20404;-81
2024/01/16 07:23:56;;;;;;;24.10;3.43;;;1.50;99.90;;;;;;5038221;28;20397;-81
2024/01/16 07:26:23;;;;;;;19.10;3.33;;;1.40;99.90;;;;;;5021572;28;20467;-80
2024/01/16 07:28:49;;;;;;;21.70;3.08;;;1.40;99.90;;;;;;5038498;28;20200;-81
2024/01/16 07:31:16;;;;;;;26.70;4.37;;;1.40;99.90;;;;;;5038819;28;20158;-81
2024/01/16 07:33:42;;;;;;;21.85;4.03;;;1.40;99.90;;;;;;5038853;28;20185;-81
2024/01/16 07:36:09;;;;;;;21.27;3.20;;;1.50;99.90;;;;;;5039193;28;20193;-81
2024/01/16 07:38:36;;;;;;;22.90;2.50;;;1.40;99.90;;;;;;5021172;28;20609;-81
2024/01/16 07:41:02;;;;;;;20.60;2.33;;;1.50;99.90;;;;;;5039267;28;20166;-81
2024/01/16 07:43:29;;;;;;;17.63;3.13;;;1.50;99.90;;;;;;5020894;28;20177;-81
2024/01/16 07:45:57;;;;;;;19.83;2.85;;;1.50;99.90;;;;;;5039232;28;20574;-81
2024/01/16 07:48:23;;;;;;;24.02;3.38;;;1.50;99.90;;;;;;5038837;28;20177;-81
2024/01/16 07:50:49;;;;;;;20.33;3.53;;;1.50;99.90;;;;;;5038934;28;20543;-81
2024/01/16 07:53:15;;;;;;;21.90;3.08;;;1.50;99.90;;;;;;5039102;28;20204;-80
2024/01/16 07:55:42;;;;;;;22.90;3.00;;;1.50;99.90;;;;;;5021344;28;20170;-80
2024/01/16 07:58:09;;;;;;;19.42;3.03;;;1.40;99.90;;;;;;5038544;28;20474;-81
2024/01/16 08:00:35;;;;;;;25.40;3.70;;;1.40;99.90;;;;;;5038089;28;20154;-80
2024/01/16 08:03:01;;;;;;;23.07;3.03;;;1.40;99.90;;;;;;5038544;28;20165;-80
2024/01/16 08:05:27;;;;;;;18.30;3.53;;;1.30;99.90;;;;;;5021038;28;20173;-82
2024/01/16 08:07:54;;;;;;;26.98;3.97;;;1.30;99.90;;;;;;5038448;28;20192;-81
2024/01/16 08:10:19;;;;;;;19.55;3.03;;;1.30;99.90;;;;;;5037950;28;20185;-80
2024/01/16 08:12:45;;;;;;;19.47;3.30;;;1.30;99.90;;;;;;5037564;28;20190;-81
2024/01/16 08:15:11;;;;;;;21.10;3.30;;;1.40;99.90;;;;;;5021622;28;20178;-81
2024/01/16 08:17:37;;;;;;;18.70;2.80;;;1.30;99.90;;;;;;5021638;28;20190;-81
2024/01/16 08:20:03;;;;;;;24.20;3.40;;;1.30;99.90;;;;;;5038566;28;20181;-81
2024/01/16 08:22:29;;;;;;;18.35;3.17;;;1.30;99.90;;;;;;5039040;28;20166;-81
2024/01/16 08:24:55;;;;;;;16.90;2.40;;;1.30;99.90;;;;;;5038009;28;20168;-82
2024/01/16 08:27:20;;;;;;;20.27;3.40;;;1.30;99.90;;;;;;5038384;28;20231;-80
2024/01/16 08:29:49;;;;;;;23.60;4.17;;;1.40;99.90;;;;;;5020922;28;20412;-82
2024/01/16 08:32:16;;;;;;;21.73;3.55;;;1.50;99.90;;;;;;5039603;28;20182;-80
2024/01/16 08:34:42;;;;;;;17.13;2.40;;;1.40;99.90;;;;;;5039930;28;20158;-82
2024/01/16 08:37:08;;;;;;;30.23;3.85;;;1.50;99.90;;;;;;5039929;28;20260;-81
2024/01/16 08:39:34;;;;;;;20.10;3.03;;;1.50;99.90;;;;;;5039234;28;20186;-81
2024/01/16 08:42:02;;;;;;;20.13;3.30;;;1.50;99.90;;;;;;5039796;28;20172;-80
2024/01/16 08:44:27;;;;;;;22.52;3.05;;;1.50;99.90;;;;;;5039690;28;20594;-81
2024/01/16 08:46:53;;;;;;;23.00;2.47;;;1.40;99.90;;;;;;5021758;28;20229;-82
2024/01/16 08:49:19;;;;;;;19.97;2.87;;;1.50;99.90;;;;;;5039163;28;20578;-82
2024/01/16 08:51:44;;;;;;;20.83;2.83;;;1.50;99.90;;;;;;5021679;28;20706;-81
2024/01/16 08:54:10;;;;;;;20.93;3.17;;;1.50;99.90;;;;;;5039647;28;20439;-82
2024/01/16 08:56:36;;;;;;;24.13;3.67;;;1.50;99.90;;;;;;5021354;28;20208;-82
2024/01/16 08:59:02;;;;;;;17.15;2.72;;;1.40;99.90;;;;;;5039418;28;20208;-81
2024/01/16 09:01:28;;;;;;;25.17;3.57;;;1.40;99.90;;;;;;5021269;28;20639;-80
2024/01/16 09:03:53;;;;;;;21.87;3.60;;;1.50;99.90;;;;;;5039410;28;20205;-81
2024/01/16 09:06:19;;;;;;;27.40;3.43;;;1.60;99.90;;;;;;5039441;28;20185;-82
2024/01/16 09:08:45;;;;;;;19.37;3.10;;;1.50;99.90;;;;;;5039084;28;20169;-81
2024/01/16 09:11:11;;;;;;;24.50;3.40;;;1.50;99.90;;;;;;5039115;28;20176;-82
2024/01/16 09:13:37;;;;;;;20.35;2.63;;;1.60;99.90;;;;;;5039163;28;20189;-81
2024/01/16 09:16:04;;;;;;;19.27;3.40;;;1.60;99.90;;;;;;5038707;28;20288;-80
2024/01/16 09:18:29;;;;;;;20.13;3.55;;;1.70;99.90;;;;;;5038873;28;20162;-81
2024/01/16 09:20:55;;;;;;;24.40;3.53;;;1.70;99.90;;;;;;5037727;28;20165;-81
2024/01/16 09:23:21;;;;;;;23.47;3.17;;;1.80;99.90;;;;;;5037672;28;20595;-82
2024/01/16 09:25:46;;;;;;;21.77;3.93;;;1.80;99.90;;;;;;5036392;28;20181;-81
2024/01/16 09:28:12;;;;;;;21.50;2.93;;;1.80;99.90;;;;;;5036511;28;20251;-81
2024/01/16 09:30:38;;;;;;;22.03;3.87;;;1.90;99.90;;;;;;5035992;28;20174;-81
2024/01/16 09:33:06;;;;;;;21.77;3.77;;;1.80;99.90;;;;;;5035332;28;20532;-81
2024/01/16 09:35:32;;;;;;;19.67;3.35;;;1.90;99.90;;;;;;5036140;28;20158;-81
2024/01/16 09:37:59;;;;;;;19.80;3.05;;;1.80;99.90;;;;;;5035775;28;20182;-81
2024/01/16 09:40:25;;;;;;;21.13;2.80;;;1.80;99.90;;;;;;5017584;28;20261;-81
2024/01/16 09:42:52;;;;;;;20.00;2.70;;;1.90;99.90;;;;;;5035950;28;20169;-81
2024/01/16 09:45:23;;;;;;;18.25;3.13;;;1.90;99.90;;;;;;5035842;28;20238;-81
2024/01/16 09:47:51;;;;;;;25.02;3.22;;;1.90;99.90;;;;;;5036446;28;20666;-81
2024/01/16 09:50:20;;;;;;;19.73;3.45;;;2.00;99.90;;;;;;5035294;28;20174;-81
2024/01/16 09:52:46;;;;;;;20.15;2.80;;;2.00;99.90;;;;;;5035095;28;20190;-81
2024/01/16 09:55:12;;;;;;;23.30;3.53;;;2.00;99.90;;;;;;5035705;28;20177;-80
2024/01/16 09:57:40;;;;;;;19.67;3.17;;;1.90;99.90;;;;;;5018006;28;20626;-82
2024/01/16 10:00:11;;;;;;;22.35;3.25;;;2.00;99.90;;;;;;5035988;28;20158;-81
2024/01/16 10:02:39;;;;;;;21.83;3.22;;;2.10;99.90;;;;;;5036032;28;20150;-81
2024/01/16 10:05:05;;;;;;;19.67;3.20;;;2.20;99.90;;;;;;5018444;28;20174;-81
2024/01/16 10:07:33;;;;;;;18.03;2.73;;;2.20;99.90;;;;;;5035924;28;20189;-81
2024/01/16 10:09:59;;;;;;;23.05;3.55;;;2.10;99.90;;;;;;5017797;28;20413;-81
2024/01/16 10:12:25;;;;;;;25.90;3.67;;;2.20;99.90;;;;;;5035458;28;20201;-81
2024/01/16 10:14:51;;;;;;;24.30;3.30;;;2.20;99.90;;;;;;5017596;28;20174;-81
2024/01/16 10:17:18;;;;;;;33.77;4.00;;;2.10;99.90;;;;;;5035377;28;20197;-81
2024/01/16 10:19:52;;;;;;;22.33;3.45;;;1.90;99.90;;;;;;5035662;28;20162;-81
2024/01/16 10:22:24;;;;;;;20.60;3.22;;;1.90;99.90;;;;;;5035357;28;20193;-81
2024/01/16 10:25:05;;;;;;;20.80;2.90;;;2.00;99.90;;;;;;5017878;28;20181;-81
2024/01/16 10:27:31;;;;;;;25.63;3.47;;;2.20;99.90;;;;;;5035035;28;20209;-81
2024/01/16 10:29:58;;;;;;;24.75;4.57;;;2.30;99.90;;;;;;5035645;28;20192;-81
2024/01/16 10:32:29;;;;;;;26.45;3.60;;;2.40;99.90;;;;;;5035173;28;20611;-80
2024/01/16 10:35:15;;;;;;;31.20;4.00;;;2.40;99.90;;;;;;5034852;28;20241;-80
2024/01/16 10:37:48;;;;;;;31.17;4.60;;;2.10;99.90;;;;;;5017340;28;20190;-81
2024/01/16 10:40:25;;;;;;;26.30;4.07;;;2.10;99.90;;;;;;5035531;28;20554;-81
2024/01/16 10:43:05;;;;;;;24.58;4.22;;;2.20;99.90;;;;;;5034915;28;20212;-81
2024/01/16 10:45:34;;;;;;;26.98;5.10;;;2.10;99.90;;;;;;5035562;28;20657;-81
2024/01/16 10:48:04;;;;;;;27.95;3.60;;;2.10;99.90;;;;;;5016903;28;20248;-81
2024/01/16 10:50:30;;;;;;;29.65;4.68;;;2.20;99.90;;;;;;5035066;28;20170;-81
2024/01/16 10:53:00;;;;;;;24.13;4.97;;;2.20;99.90;;;;;;5034671;28;20277;-81
2024/01/16 10:55:28;;;;;;;28.88;5.22;;;2.10;99.90;;;;;;5035235;28;20182;-81
2024/01/16 10:57:56;;;;;;;28.60;3.95;;;2.30;99.90;;;;;;5016597;28;20224;-80
2024/01/16 11:00:26;;;;;;;33.45;4.70;;;2.40;99.90;;;;;;5034743;28;20658;-80
2024/01/16 11:03:24;;;;;;;22.45;4.18;;;2.50;99.90;;;;;;5035321;28;20166;-82
2024/01/16 11:05:50;;;;;;;27.98;4.97;;;2.50;99.90;;;;;;5019152;28;20663;-81
2024/01/16 11:08:17;;;;;;;34.78;7.43;;;2.60;99.90;;;;;;5020398;28;20178;-80
2024/01/16 11:10:43;;;;;;;31.42;4.50;;;2.60;97.50;;;;;;5038554;28;20173;-81
2024/01/16 11:13:11;;;;;;;25.17;3.95;;;2.60;99.90;;;;;;5037898;28;20189;-81
2024/01/16 11:15:38;;;;;;;20.45;3.03;;;2.50;98.90;;;;;;5037702;28;20698;-79
2024/01/16 11:18:06;;;;;;;21.77;3.10;;;2.50;99.90;;;;;;5019992;28;20190;-81
2024/01/16 11:20:32;;;;;;;24.00;4.43;;;2.50;98.10;;;;;;5038270;28;20162;-80
2024/01/16 11:23:02;;;;;;;18.90;2.75;;;2.50;99.60;;;;;;5038067;28;20166;-81
2024/01/16 11:25:34;;;;;;;18.50;2.92;;;2.50;99.90;;;;;;5038221;28;20260;-81
2024/01/16 11:28:10;;;;;;;19.23;2.75;;;2.50;99.90;;;;;;5038133;28;20209;-80
2024/01/16 11:30:36;;;;;;;20.85;3.42;;;2.50;99.90;;;;;;5020311;28;20579;-81
2024/01/16 11:33:01;;;;;;;18.10;2.73;;;2.60;99.90;;;;;;5019898;28;20205;-80
2024/01/16 11:35:39;;;;;;;20.63;2.90;;;2.60;96.80;;;;;;5020022;28;20174;-81
2024/01/16 11:38:14;;;;;;;19.75;2.55;;;2.50;95.60;;;;;;5037451;28;20944;-81
2024/01/16 11:40:39;;;;;;;20.35;2.63;;;2.50;94.80;;;;;;5037529;28;20141;-80
2024/01/16 11:43:33;;;;;;;17.70;2.67;;;2.60;96.30;;;;;;5037746;28;20170;-80
2024/01/16 11:46:03;;;;;;;20.65;2.42;;;2.60;92.70;;;;;;5037811;28;20170;-81
2024/01/16 11:48:29;;;;;;;23.20;3.35;;;2.60;94.80;;;;;;5037746;28;20177;-81
2024/01/16 11:50:55;;;;;;;18.60;2.50;;;2.60;92.30;;;;;;5019984;28;20551;-80
2024/01/16 11:53:39;;;;;;;17.13;2.60;;;2.60;89.00;;;;;;5037565;28;20212;-81
2024/01/16 11:56:13;;;;;;;17.77;3.08;;;2.50;65.50;;;;;;5038004;28;20696;-81
2024/01/16 11:58:54;;;;;;;22.30;3.05;;;2.50;43.40;;;;;;5020081;28;20258;-80
2024/01/16 12:01:20;;;;;;;18.73;2.75;;;2.50;43.60;;;;;;5038251;28;20157;-81
2024/01/16 12:04:04;;;;;;;17.85;3.53;;;2.50;28.80;;;;;;5036661;28;20162;-81
2024/01/16 12:06:31;;;;;;;16.88;2.50;;;2.50;17.30;;;;;;5019955;28;20193;-81
2024/01/16 12:09:18;;;;;;;23.48;3.83;;;2.40;1.00;;;;;;5037589;28;20261;-81
2024/01/16 12:11:55;;;;;;;22.50;3.03;;;2.40;1.00;;;;;;5037745;28;20155;-82
2024/01/16 12:14:20;;;;;;;21.90;2.75;;;2.30;1.00;;;;;;5036253;28;20646;-81
2024/01/16 12:16:46;;;;;;;19.50;2.97;;;2.20;1.00;;;;;;5036767;28;20190;-80
2024/01/16 12:19:13;;;;;;;19.23;3.40;;;2.20;1.00;;;;;;5019268;28;20261;-80
2024/01/16 12:21:39;;;;;;;20.80;2.72;;;2.30;1.00;;;;;;5037652;28;20169;-81
2024/01/16 12:24:05;;;;;;;23.27;3.95;;;2.20;1.00;;;;;;5037185;28;20245;-81
2024/01/16 12:26:34;;;;;;;22.73;3.97;;;2.10;1.00;;;;;;5018474;28;20301;-82
2024/01/16 12:28:59;;;;;;;17.83;3.10;;;2.20;1.00;;;;;;5036817;28;20198;-80
2024/01/16 12:31:26;;;;;;;26.70;4.03;;;2.10;1.00;;;;;;5037096;28;20177;-80
2024/01/16 12:33:52;;;;;;;20.05;3.10;;;2.20;1.00;;;;;;5036560;28;20216;-81
2024/01/16 12:36:18;;;;;;;18.60;3.47;;;2.10;1.00;;;;;;5037023;28;20178;-81
2024/01/16 12:38:43;;;;;;;19.00;3.30;;;2.20;1.00;;;;;;5019419;28;20454;-80
2024/01/16 12:41:11;;;;;;;21.13;4.10;;;2.30;1.00;;;;;;5019326;28;20443;-81
2024/01/16 12:43:37;;;;;;;22.17;3.50;;;2.20;1.00;;;;;;5036661;28;20849;-80
2024/01/16 12:46:03;;;;;;;20.52;3.45;;;2.10;1.00;;;;;;5036719;28;20170;-81
2024/01/16 12:48:29;;;;;;;17.17;3.53;;;2.10;1.00;;;;;;5037005;28;20173;-81